createdAt,value
2019-02-15T00:01:41.433Z,11.27
2019-02-15T00:04:09.405Z,11.70
2019-02-15T00:06:37.358Z,11.40
2019-02-15T00:09:06.002Z,11.30
2019-02-15T00:11:33.908Z,10.83
2019-02-15T00:14:01.879Z,11.00
2019-02-15T00:16:29.861Z,10.30
2019-02-15T00:19:06.624Z,10.30
2019-02-15T00:21:40.939Z,9.93
2019-02-15T00:24:08.925Z,10.47
2019-02-15T00:26:36.877Z,11.27
2019-02-15T00:29:04.887Z,11.20
2019-02-15T00:31:32.838Z,10.63
2019-02-15T00:34:00.816Z,11.17
2019-02-15T00:36:28.812Z,11.07
2019-02-15T00:38:56.947Z,10.17
2019-02-15T00:41:25.423Z,11.37
2019-02-15T00:43:53.382Z,9.80
2019-02-15T00:46:55.721Z,10.60
2019-02-15T00:49:42.751Z,10.97
2019-02-15T00:52:35.716Z,10.17
2019-02-15T00:55:28.799Z,10.40
2019-02-15T00:58:21.605Z,9.83
2019-02-15T01:01:00.761Z,10.87
2019-02-15T01:03:42.668Z,9.90
2019-02-15T01:06:28.301Z,10.10
2019-02-15T01:09:18.112Z,8.40
2019-02-15T01:11:58.099Z,9.87
2019-02-15T01:14:26.147Z,10.50
2019-02-15T01:16:54.129Z,9.27
2019-02-15T01:19:22.120Z,10.63
2019-02-15T01:21:50.068Z,11.07
2019-02-15T01:24:18.036Z,11.10
2019-02-15T01:26:48.147Z,10.13
2019-02-15T01:29:47.486Z,12.33
2019-02-15T01:32:40.554Z,10.60
2019-02-15T01:35:35.010Z,9.60
2019-02-15T01:38:20.635Z,9.70
2019-02-15T01:40:58.641Z,10.57
2019-02-15T01:43:39.989Z,9.53
2019-02-15T01:46:15.811Z,9.50
2019-02-15T01:48:43.809Z,9.90
2019-02-15T01:51:11.853Z,11.03
2019-02-15T01:53:39.877Z,10.47
2019-02-15T01:56:07.912Z,11.40
2019-02-15T01:58:35.891Z,10.57
2019-02-15T02:01:04.144Z,10.40
2019-02-15T02:03:32.249Z,10.80
2019-02-15T02:06:00.179Z,9.23
2019-02-15T02:08:28.180Z,9.80
2019-02-15T02:10:56.145Z,10.20
2019-02-15T02:13:24.378Z,10.50
2019-02-15T02:15:52.283Z,9.67
2019-02-15T02:18:20.249Z,10.33
2019-02-15T02:20:48.226Z,10.50
2019-02-15T02:23:16.179Z,11.03
2019-02-15T02:25:44.183Z,9.50
2019-02-15T02:28:12.224Z,10.90
2019-02-15T02:30:40.216Z,10.83
2019-02-15T02:33:08.200Z,11.40
2019-02-15T02:35:36.149Z,11.40
2019-02-15T02:38:04.235Z,10.23
2019-02-15T02:40:32.181Z,10.40
2019-02-15T02:43:00.209Z,10.60
2019-02-15T02:45:28.121Z,10.67
2019-02-15T02:47:56.086Z,11.93
2019-02-15T02:50:24.069Z,11.37
2019-02-15T02:52:52.010Z,10.87
2019-02-15T02:55:20.000Z,11.17
2019-02-15T02:57:48.084Z,9.97
2019-02-15T03:00:16.082Z,10.97
2019-02-15T03:02:44.120Z,11.37
2019-02-15T03:05:12.177Z,11.33
2019-02-15T03:07:40.141Z,9.93
2019-02-15T03:10:08.120Z,10.63
2019-02-15T03:12:36.498Z,9.77
2019-02-15T03:15:04.744Z,10.30
2019-02-15T03:17:32.745Z,9.27
2019-02-15T03:20:00.724Z,10.20
2019-02-15T03:22:28.667Z,10.50
2019-02-15T03:24:56.653Z,10.30
2019-02-15T03:27:24.702Z,11.20
2019-02-15T03:29:52.730Z,9.50
2019-02-15T03:32:20.753Z,10.23
2019-02-15T03:34:48.704Z,11.27
2019-02-15T03:37:47.688Z,11.50
2019-02-15T03:40:21.842Z,11.00
2019-02-15T03:42:49.876Z,10.10
2019-02-15T03:45:18.237Z,11.30
2019-02-15T03:47:46.265Z,10.53
2019-02-15T03:50:14.229Z,10.00
2019-02-15T03:52:42.225Z,10.63
2019-02-15T03:55:10.262Z,9.47
2019-02-15T03:57:38.345Z,10.27
2019-02-15T04:00:07.147Z,8.90
2019-02-15T04:02:35.091Z,9.73
2019-02-15T04:05:03.085Z,9.90
2019-02-15T04:07:31.020Z,10.07
2019-02-15T04:09:58.998Z,11.18
2019-02-15T04:12:26.980Z,10.47
2019-02-15T04:14:55.063Z,11.27
2019-02-15T04:17:23.126Z,11.07
2019-02-15T04:19:51.170Z,10.10
2019-02-15T04:22:19.157Z,10.93
2019-02-15T04:24:47.210Z,10.48
2019-02-15T04:27:15.900Z,11.20
2019-02-15T04:29:43.872Z,10.73
2019-02-15T04:32:11.849Z,10.80
2019-02-15T04:34:39.838Z,10.77
2019-02-15T04:37:08.001Z,10.20
2019-02-15T04:39:35.980Z,9.90
2019-02-15T04:42:03.958Z,9.00
2019-02-15T04:44:32.009Z,10.17
2019-02-15T04:46:59.976Z,9.20
2019-02-15T04:49:27.943Z,9.60
2019-02-15T04:51:55.918Z,9.37
2019-02-15T04:54:23.882Z,9.47
2019-02-15T04:56:51.839Z,9.97
2019-02-15T04:59:19.836Z,10.53
2019-02-15T05:01:47.883Z,9.63
2019-02-15T05:04:15.869Z,10.13
2019-02-15T05:06:43.920Z,9.87
2019-02-15T05:09:11.912Z,11.17
2019-02-15T05:11:39.969Z,10.97
2019-02-15T05:14:07.949Z,11.13
2019-02-15T05:16:35.964Z,12.27
2019-02-15T05:19:03.974Z,11.40
2019-02-15T05:21:31.964Z,9.23
2019-02-15T05:23:59.936Z,9.87
2019-02-15T05:26:27.875Z,11.10
2019-02-15T05:28:55.872Z,9.87
2019-02-15T05:31:23.816Z,10.93
2019-02-15T05:33:51.809Z,10.90
2019-02-15T05:36:19.753Z,10.37
2019-02-15T05:38:47.792Z,10.60
2019-02-15T05:41:15.815Z,10.93
2019-02-15T05:43:43.810Z,10.60
2019-02-15T05:46:11.866Z,11.13
2019-02-15T05:48:39.913Z,11.17
2019-02-15T05:51:07.897Z,11.03
2019-02-15T05:53:35.943Z,10.10
2019-02-15T05:56:03.922Z,10.80
2019-02-15T05:58:31.913Z,10.87
2019-02-15T06:00:59.887Z,12.00
2019-02-15T06:03:27.953Z,14.07
2019-02-15T06:05:55.922Z,11.80
2019-02-15T06:08:23.969Z,11.60
2019-02-15T06:10:51.961Z,11.20
2019-02-15T06:13:19.902Z,10.33
2019-02-15T06:15:47.866Z,11.00
2019-02-15T06:18:15.861Z,11.20
2019-02-15T06:20:43.799Z,10.63
2019-02-15T06:23:11.796Z,14.60
2019-02-15T06:25:40.268Z,13.00
2019-02-15T06:28:10.343Z,18.37
2019-02-15T06:30:37.958Z,15.20
2019-02-15T06:33:06.013Z,10.70
2019-02-15T06:35:33.992Z,11.47
2019-02-15T06:38:02.078Z,11.63
2019-02-15T06:40:30.021Z,11.70
2019-02-15T06:42:58.044Z,11.13
2019-02-15T06:45:25.916Z,10.97
2019-02-15T06:47:53.991Z,12.20
2019-02-15T06:50:21.995Z,11.33
2019-02-15T06:52:49.947Z,11.70
2019-02-15T06:55:18.005Z,11.33
2019-02-15T06:57:45.944Z,10.43
2019-02-15T07:00:19.720Z,13.03
2019-02-15T07:03:04.560Z,12.27
2019-02-15T07:05:32.520Z,10.87
2019-02-15T07:08:00.488Z,15.43
2019-02-15T07:10:28.439Z,12.40
2019-02-15T07:12:56.403Z,11.60
2019-02-15T07:15:33.152Z,12.00
2019-02-15T07:17:55.184Z,17.13
2019-02-15T07:20:23.061Z,15.23
2019-02-15T07:22:51.441Z,16.03
2019-02-15T07:25:19.400Z,15.83
2019-02-15T07:27:47.769Z,12.80
2019-02-15T07:30:15.840Z,13.20
2019-02-15T07:32:43.750Z,14.57
2019-02-15T07:35:12.285Z,13.30
2019-02-15T07:37:40.360Z,11.97
2019-02-15T07:40:08.755Z,12.40
2019-02-15T07:42:36.852Z,11.07
2019-02-15T07:45:05.064Z,10.97
2019-02-15T07:47:33.035Z,9.67
2019-02-15T07:50:00.945Z,9.90
2019-02-15T07:52:31.036Z,9.73
2019-02-15T07:54:59.015Z,9.00
2019-02-15T07:57:27.036Z,10.03
2019-02-15T07:59:55.034Z,11.10
2019-02-15T08:02:23.001Z,10.57
2019-02-15T08:04:51.028Z,10.30
2019-02-15T08:07:19.075Z,11.50
2019-02-15T08:09:47.144Z,11.60
2019-02-15T08:12:15.353Z,13.63
2019-02-15T08:14:43.305Z,13.60
2019-02-15T08:17:11.294Z,15.83
2019-02-15T08:19:39.186Z,13.90
2019-02-15T08:22:07.155Z,12.20
2019-02-15T08:24:35.040Z,13.03
2019-02-15T08:27:03.050Z,13.40
2019-02-15T08:29:31.313Z,13.00
2019-02-15T08:31:59.276Z,13.20
2019-02-15T08:34:27.237Z,13.00
2019-02-15T08:36:55.243Z,13.17
2019-02-15T08:39:23.208Z,13.03
2019-02-15T08:42:01.735Z,13.70
2019-02-15T08:44:21.281Z,13.00
2019-02-15T08:46:49.317Z,12.60
2019-02-15T08:49:17.286Z,13.73
2019-02-15T08:51:45.339Z,13.33
2019-02-15T08:54:13.404Z,12.00
2019-02-15T08:56:41.378Z,12.40
2019-02-15T08:59:09.439Z,13.47
2019-02-15T09:01:37.506Z,12.80
2019-02-15T09:04:05.577Z,11.70
2019-02-15T09:06:33.632Z,11.67
2019-02-15T09:09:01.625Z,12.67
2019-02-15T09:11:29.505Z,13.50
2019-02-15T09:13:57.535Z,13.17
2019-02-15T09:16:25.432Z,13.50
2019-02-15T09:18:53.400Z,12.70
2019-02-15T09:21:21.322Z,14.07
2019-02-15T09:23:49.198Z,13.20
2019-02-15T09:26:18.414Z,13.50
2019-02-15T09:28:53.706Z,13.40
2019-02-15T09:31:21.596Z,13.23
2019-02-15T09:33:49.502Z,12.47
2019-02-15T09:36:17.451Z,13.53
2019-02-15T09:38:45.534Z,15.60
2019-02-15T09:41:13.525Z,12.67
2019-02-15T09:43:41.418Z,12.30
2019-02-15T09:46:19.280Z,11.63
2019-02-15T09:48:40.056Z,11.43
2019-02-15T09:51:08.079Z,13.00
2019-02-15T09:53:36.030Z,12.07
2019-02-15T09:56:04.028Z,13.27
2019-02-15T09:58:32.075Z,13.23
2019-02-15T10:01:00.068Z,11.27
2019-02-15T10:03:27.989Z,11.87
2019-02-15T10:05:55.964Z,16.93
2019-02-15T10:08:24.050Z,13.47
2019-02-15T10:10:52.011Z,12.23
2019-02-15T10:13:20.035Z,11.80
2019-02-15T10:15:48.102Z,10.63
2019-02-15T10:18:15.984Z,10.83
2019-02-15T10:20:44.023Z,10.37
2019-02-15T10:23:11.920Z,11.37
2019-02-15T10:25:39.983Z,10.80
2019-02-15T10:28:07.958Z,16.67
2019-02-15T10:30:37.156Z,10.47
2019-02-15T10:33:06.737Z,10.27
2019-02-15T10:35:34.837Z,10.10
2019-02-15T10:38:02.718Z,10.27
2019-02-15T10:40:30.673Z,9.43
2019-02-15T10:42:59.059Z,8.83
2019-02-15T10:45:27.037Z,9.90
2019-02-15T10:47:54.975Z,9.73
2019-02-15T10:50:23.058Z,9.40
2019-02-15T10:52:51.132Z,9.43
2019-02-15T10:55:19.186Z,9.20
2019-02-15T10:57:47.336Z,9.70
2019-02-15T11:00:19.662Z,9.43
2019-02-15T11:02:47.687Z,10.30
2019-02-15T11:05:16.055Z,10.03
2019-02-15T11:07:44.048Z,9.30
2019-02-15T11:10:12.310Z,9.97
2019-02-15T11:12:40.329Z,10.33
2019-02-15T11:15:08.564Z,8.70
2019-02-15T11:17:36.672Z,9.80
2019-02-15T11:20:04.750Z,10.10
2019-02-15T11:22:32.793Z,10.83
2019-02-15T11:25:00.793Z,11.07
2019-02-15T11:27:28.865Z,9.83
2019-02-15T11:29:57.036Z,10.30
2019-02-15T11:32:25.150Z,10.77
2019-02-15T11:34:53.137Z,11.60
2019-02-15T11:37:21.230Z,11.57
2019-02-15T11:39:49.409Z,10.90
2019-02-15T11:42:17.465Z,11.57
2019-02-15T11:44:45.542Z,11.47
2019-02-15T11:47:13.542Z,11.40
2019-02-15T11:49:41.747Z,11.70
2019-02-15T11:52:09.724Z,11.10
2019-02-15T11:54:37.732Z,11.30
2019-02-15T11:57:05.803Z,11.10
2019-02-15T11:59:33.845Z,11.07
2019-02-15T12:02:06.310Z,11.20
2019-02-15T12:04:31.538Z,10.70
2019-02-15T12:06:59.671Z,10.30
2019-02-15T12:09:27.608Z,11.67
2019-02-15T12:11:55.539Z,11.20
2019-02-15T12:14:24.829Z,10.27
2019-02-15T12:16:54.197Z,10.37
2019-02-15T12:19:23.490Z,10.93
2019-02-15T12:21:51.521Z,12.03
2019-02-15T12:24:19.533Z,11.33
2019-02-15T12:26:47.468Z,10.30
2019-02-15T12:29:15.473Z,12.00
2019-02-15T12:31:43.495Z,11.93
2019-02-15T12:34:11.452Z,11.13
2019-02-15T12:36:39.447Z,10.87
2019-02-15T12:39:07.831Z,10.90
2019-02-15T12:41:35.846Z,11.70
2019-02-15T12:44:03.776Z,11.47
2019-02-15T12:46:31.892Z,10.87
2019-02-15T12:49:00.479Z,11.00
2019-02-15T12:51:28.490Z,11.50
2019-02-15T12:53:56.563Z,11.23
2019-02-15T12:56:24.656Z,11.10
2019-02-15T12:58:52.577Z,12.10
2019-02-15T13:01:20.729Z,12.10
2019-02-15T13:03:49.113Z,12.10
2019-02-15T13:06:17.152Z,12.20
2019-02-15T13:08:45.245Z,11.57
2019-02-15T13:11:13.256Z,11.87
2019-02-15T13:13:41.247Z,11.80
2019-02-15T13:16:09.339Z,12.03
2019-02-15T13:18:37.575Z,12.70
2019-02-15T13:21:05.926Z,12.43
2019-02-15T13:23:34.327Z,11.97
2019-02-15T13:26:08.419Z,11.70
2019-02-15T13:28:32.086Z,12.77
2019-02-15T13:31:00.136Z,11.23
2019-02-15T13:33:28.049Z,11.87
2019-02-15T13:35:56.020Z,11.17
2019-02-15T13:38:24.108Z,11.90
2019-02-15T13:40:52.211Z,11.37
2019-02-15T13:43:20.288Z,12.23
2019-02-15T13:45:48.211Z,11.30
2019-02-15T13:48:16.249Z,11.63
2019-02-15T13:50:44.312Z,12.10
2019-02-15T13:53:12.540Z,11.20
2019-02-15T13:55:40.463Z,12.33
2019-02-15T13:58:08.491Z,12.33
2019-02-15T14:00:36.519Z,12.67
2019-02-15T14:03:04.640Z,15.53
2019-02-15T14:05:32.695Z,11.03
2019-02-15T14:08:01.171Z,10.77
2019-02-15T14:10:29.163Z,11.60
2019-02-15T14:12:57.389Z,12.10
2019-02-15T14:15:25.594Z,11.70
2019-02-15T14:17:53.815Z,11.70
2019-02-15T14:20:22.012Z,11.37
2019-02-15T14:22:50.032Z,11.03
2019-02-15T14:25:18.080Z,10.97
2019-02-15T14:27:46.313Z,11.23
2019-02-15T14:30:14.305Z,11.67
2019-02-15T14:32:42.445Z,11.17
2019-02-15T14:35:10.411Z,11.30
2019-02-15T14:37:38.660Z,11.40
2019-02-15T14:40:06.859Z,10.87
2019-02-15T14:42:34.750Z,11.00
2019-02-15T14:45:02.999Z,11.13
2019-02-15T14:47:30.933Z,10.90
2019-02-15T14:49:58.968Z,12.17
2019-02-15T14:52:26.947Z,10.80
2019-02-15T14:54:54.914Z,10.90
2019-02-15T14:57:23.171Z,11.27
2019-02-15T14:59:51.159Z,10.00
2019-02-15T15:02:19.136Z,10.50
2019-02-15T15:04:47.229Z,9.83
2019-02-15T15:07:15.264Z,10.70
2019-02-15T15:09:43.270Z,10.33
2019-02-15T15:12:11.322Z,10.50
2019-02-15T15:14:39.431Z,11.03
2019-02-15T15:17:07.481Z,10.93
2019-02-15T15:19:35.544Z,11.30
2019-02-15T15:22:03.741Z,11.53
2019-02-15T15:24:31.681Z,11.63
2019-02-15T15:26:59.620Z,11.93
2019-02-15T15:29:27.680Z,11.33
2019-02-15T15:31:55.681Z,11.17
2019-02-15T15:34:23.680Z,12.00
2019-02-15T15:36:51.748Z,11.93
2019-02-15T15:39:19.726Z,12.70
2019-02-15T15:41:47.768Z,12.63
2019-02-15T15:44:15.782Z,11.30
2019-02-15T15:46:43.732Z,12.80
2019-02-15T15:49:11.660Z,13.47
2019-02-15T15:51:39.676Z,12.10
2019-02-15T15:54:07.616Z,13.23
2019-02-15T15:56:35.576Z,11.77
2019-02-15T15:59:03.610Z,13.47
2019-02-15T16:01:31.635Z,13.70
2019-02-15T16:04:00.666Z,13.40
2019-02-15T16:06:29.907Z,13.33
2019-02-15T16:08:58.035Z,12.03
2019-02-15T16:11:26.380Z,12.93
2019-02-15T16:13:54.429Z,12.70
2019-02-15T16:16:22.415Z,13.50
2019-02-15T16:18:50.395Z,11.10
2019-02-15T16:21:18.344Z,14.10
2019-02-15T16:23:46.345Z,14.17
2019-02-15T16:26:14.274Z,13.40
2019-02-15T16:28:42.342Z,11.50
2019-02-15T16:31:10.337Z,12.93
2019-02-15T16:33:39.064Z,12.50
2019-02-15T16:36:07.081Z,10.97
2019-02-15T16:38:35.060Z,12.20
2019-02-15T16:41:03.021Z,13.30
2019-02-15T16:43:30.997Z,11.93
2019-02-15T16:45:59.196Z,10.97
2019-02-15T16:48:27.275Z,12.37
2019-02-15T16:50:55.471Z,11.80
2019-02-15T16:53:23.370Z,11.30
2019-02-15T16:55:51.374Z,12.50
2019-02-15T16:58:19.481Z,12.60
2019-02-15T17:00:47.482Z,11.43
2019-02-15T17:03:15.478Z,13.10
2019-02-15T17:05:43.528Z,11.00
2019-02-15T17:08:11.544Z,12.50
2019-02-15T17:10:39.557Z,11.93
2019-02-15T17:13:07.701Z,13.00
2019-02-15T17:15:35.805Z,11.90
2019-02-15T17:18:03.933Z,12.50
2019-02-15T17:20:31.887Z,11.53
2019-02-15T17:22:59.938Z,12.60
2019-02-15T17:25:28.138Z,12.70
2019-02-15T17:27:56.349Z,11.50
2019-02-15T17:30:24.335Z,10.80
2019-02-15T17:32:52.544Z,12.70
2019-02-15T17:35:20.500Z,13.40
2019-02-15T17:37:48.549Z,11.87
2019-02-15T17:40:16.540Z,12.03
2019-02-15T17:42:44.713Z,11.57
2019-02-15T17:45:13.308Z,12.07
2019-02-15T17:47:41.436Z,12.00
2019-02-15T17:50:09.496Z,11.80
2019-02-15T17:52:37.573Z,11.70
2019-02-15T17:55:05.638Z,12.23
2019-02-15T17:57:33.568Z,11.70
2019-02-15T18:00:01.591Z,10.97
2019-02-15T18:02:29.577Z,13.00
2019-02-15T18:04:57.544Z,11.47
2019-02-15T18:07:25.538Z,18.37
2019-02-15T18:09:55.068Z,17.17
2019-02-15T18:12:23.595Z,15.53
2019-02-15T18:14:51.596Z,16.07
2019-02-15T18:17:19.749Z,15.57
2019-02-15T18:19:48.015Z,16.10
2019-02-15T18:22:16.034Z,15.77
2019-02-15T18:24:44.123Z,16.43
2019-02-15T18:27:12.192Z,16.13
2019-02-15T18:29:40.212Z,15.77
2019-02-15T18:32:08.384Z,14.63
2019-02-15T18:34:36.410Z,15.77
2019-02-15T18:37:05.568Z,16.67
2019-02-15T18:39:33.602Z,15.20
2019-02-15T18:42:01.610Z,14.60
2019-02-15T18:44:29.479Z,15.73
2019-02-15T18:46:57.626Z,14.77
2019-02-15T18:49:25.635Z,15.40
2019-02-15T18:51:54.882Z,16.77
2019-02-15T18:54:22.789Z,14.60
2019-02-15T18:56:51.639Z,14.83
2019-02-15T18:59:19.930Z,14.57
2019-02-15T19:01:48.080Z,15.17
2019-02-15T19:04:16.253Z,15.53
2019-02-15T19:06:44.349Z,16.13
2019-02-15T19:09:12.391Z,17.40
2019-02-15T19:11:40.295Z,18.53
2019-02-15T19:14:09.865Z,16.30
2019-02-15T19:16:39.351Z,18.00
2019-02-15T19:19:07.393Z,16.03
2019-02-15T19:21:35.455Z,16.40
2019-02-15T19:24:03.517Z,16.80
2019-02-15T19:26:32.292Z,17.50
2019-02-15T19:29:00.550Z,16.00
2019-02-15T19:31:28.558Z,18.20
2019-02-15T19:33:56.707Z,18.70
2019-02-15T19:36:24.714Z,17.20
2019-02-15T19:38:52.759Z,18.40
2019-02-15T19:41:20.898Z,15.93
2019-02-15T19:43:48.895Z,16.07
2019-02-15T19:46:16.897Z,17.83
2019-02-15T19:48:45.000Z,16.90
2019-02-15T19:51:12.981Z,18.57
2019-02-15T19:53:40.988Z,17.97
2019-02-15T19:56:09.283Z,17.27
2019-02-15T19:58:37.334Z,20.30
2019-02-15T20:01:05.381Z,17.53
2019-02-15T20:03:33.381Z,17.90
2019-02-15T20:06:01.448Z,18.40
2019-02-15T20:08:29.554Z,25.10
2019-02-15T20:10:57.637Z,20.40
2019-02-15T20:13:25.643Z,18.10
2019-02-15T20:15:53.797Z,21.27
2019-02-15T20:18:21.864Z,23.13
2019-02-15T20:20:49.782Z,18.90
2019-02-15T20:23:17.742Z,17.87
2019-02-15T20:25:45.832Z,17.13
2019-02-15T20:28:14.505Z,19.07
2019-02-15T20:30:42.568Z,19.60
2019-02-15T20:33:10.520Z,17.67
2019-02-15T20:35:38.542Z,17.60
2019-02-15T20:38:06.725Z,17.20
2019-02-15T20:40:34.655Z,18.07
2019-02-15T20:43:02.759Z,19.53
2019-02-15T20:45:30.860Z,20.20
2019-02-15T20:47:59.221Z,19.63
2019-02-15T20:50:27.415Z,19.93
2019-02-15T20:52:55.431Z,18.83
2019-02-15T20:55:23.455Z,20.77
2019-02-15T20:57:51.587Z,18.27
2019-02-15T21:00:20.589Z,20.67
2019-02-15T21:02:48.664Z,20.73
2019-02-15T21:05:16.787Z,19.83
2019-02-15T21:07:44.838Z,22.30
2019-02-15T21:10:12.918Z,20.60
2019-02-15T21:12:40.929Z,20.50
2019-02-15T21:15:09.286Z,18.97
2019-02-15T21:17:37.263Z,18.87
2019-02-15T21:20:07.949Z,20.53
2019-02-15T21:22:35.403Z,19.70
2019-02-15T21:25:03.670Z,20.87
2019-02-15T21:27:31.813Z,20.80
2019-02-15T21:29:59.755Z,19.70
2019-02-15T21:32:27.746Z,21.77
2019-02-15T21:34:55.829Z,20.10
2019-02-15T21:37:24.045Z,23.20
2019-02-15T21:39:52.034Z,21.37
2019-02-15T21:42:20.023Z,20.87
2019-02-15T21:44:47.989Z,21.10
2019-02-15T21:47:15.972Z,20.07
2019-02-15T21:49:43.981Z,21.27
2019-02-15T21:52:11.942Z,20.03
2019-02-15T21:54:39.843Z,20.00
2019-02-15T21:57:07.845Z,20.03
2019-02-15T21:59:35.851Z,19.07
2019-02-15T22:02:03.865Z,18.90
2019-02-15T22:04:32.140Z,20.40
2019-02-15T22:07:00.141Z,20.00
2019-02-15T22:09:28.212Z,22.17
2019-02-15T22:11:56.186Z,19.90
2019-02-15T22:14:24.237Z,19.20
2019-02-15T22:16:52.193Z,20.07
2019-02-15T22:19:20.181Z,20.73
2019-02-15T22:21:48.145Z,20.43
2019-02-15T22:24:16.117Z,20.43
2019-02-15T22:26:44.180Z,19.30
2019-02-15T22:29:12.173Z,19.53
2019-02-15T22:31:40.118Z,21.50
2019-02-15T22:34:08.074Z,19.97
2019-02-15T22:36:36.077Z,20.27
2019-02-15T22:39:05.402Z,20.30
2019-02-15T22:41:33.543Z,20.10
2019-02-15T22:44:01.503Z,18.30
2019-02-15T22:46:29.389Z,19.73
2019-02-15T22:48:57.354Z,18.07
2019-02-15T22:51:25.349Z,16.50
2019-02-15T22:53:53.290Z,17.60
2019-02-15T22:56:21.255Z,18.23
2019-02-15T22:58:49.297Z,18.83
2019-02-15T23:01:18.528Z,16.70
2019-02-15T23:03:46.489Z,18.77
2019-02-15T23:06:16.510Z,17.37
2019-02-15T23:08:44.560Z,18.83
2019-02-15T23:11:12.637Z,17.07
2019-02-15T23:13:40.615Z,18.73
2019-02-15T23:16:08.566Z,17.33
2019-02-15T23:18:36.561Z,17.63
2019-02-15T23:21:04.618Z,17.27
2019-02-15T23:23:32.574Z,17.87
2019-02-15T23:26:00.585Z,18.57
2019-02-15T23:28:28.654Z,17.77
2019-02-15T23:30:56.723Z,19.00
2019-02-15T23:33:24.754Z,18.47
2019-02-15T23:35:52.747Z,19.60
2019-02-15T23:38:20.699Z,19.67
2019-02-15T23:40:48.709Z,18.20
2019-02-15T23:43:16.631Z,18.07
2019-02-15T23:45:45.126Z,18.27
2019-02-15T23:48:13.104Z,16.47
2019-02-15T23:50:41.062Z,17.33
2019-02-15T23:53:08.979Z,17.53
2019-02-15T23:55:37.022Z,16.90
2019-02-15T23:58:05.071Z,18.07
